| time (UTC) | temp F | wind direction | speed knots | gust knots | rain 1hr in | rain 24hr in | rain mn in | humidity % | barometer mb |
| 20260510173632 | 89 | 5 | 4.3 | 8.7 | 0.00 | 0.00 | 0.00 | 12 | 1017.4 |
| 20260510172643 | 88 | 319 | 0.9 | 11.3 | 0.00 | 0.00 | 0.00 | 12 | 1017.3 |
| 20260510171634 | 88 | 34 | 0.9 | 9.6 | 0.00 | 0.00 | 0.00 | 12 | 1017.4 |
| 20260510170636 | 87 | 32 | 2.6 | 13.0 | 0.00 | 0.00 | 0.00 | 13 | 1017.2 |
| 20260510165641 | 87 | 161 | 7.0 | 12.2 | 0.00 | 0.00 | 0.00 | 13 | 1017.2 |
| 20260510164632 | 86 | 34 | 7.0 | 14.8 | 0.00 | 0.00 | 0.00 | 14 | 1017.1 |
| 20260510162644 | 85 | 44 | 8.7 | 13.0 | 0.00 | 0.00 | 0.00 | 14 | 1016.9 |
| 20260510161642 | 85 | 63 | 8.7 | 13.9 | 0.00 | 0.00 | 0.00 | 14 | 1016.8 |
| 20260510160641 | 84 | 56 | 7.8 | 16.5 | 0.00 | 0.00 | 0.00 | 15 | 1016.8 |
| 20260510154648 | 84 | 24 | 8.7 | 13.9 | 0.00 | 0.00 | 0.00 | 15 | 1016.7 |
| 20260510153644 | 84 | 38 | 7.8 | 13.0 | 0.00 | 0.00 | 0.00 | 15 | 1016.4 |
| 20260510152643 | 83 | 55 | 9.6 | 14.8 | 0.00 | 0.00 | 0.00 | 15 | 1016.3 |
| 20260510151636 | 83 | 50 | 7.8 | 13.9 | 0.00 | 0.00 | 0.00 | 16 | 1016.5 |
| 20260510150632 | 82 | 9 | 10.4 | 13.0 | 0.00 | 0.00 | 0.00 | 16 | 1016.6 |
| 20260510145636 | 81 | 29 | 6.1 | 11.3 | 0.00 | 0.00 | 0.00 | 16 | 1016.6 |
| 20260510144630 | 78 | 67 | 7.8 | 11.3 | 0.00 | 0.00 | 0.00 | 17 | 1016.7 |
| 20260510143649 | 76 | 290 | 2.6 | 4.3 | 0.00 | 0.00 | 0.00 | 19 | 1016.5 |
| 20260510142642 | 74 | 350 | 2.6 | 3.5 | 0.00 | 0.00 | 0.00 | 19 | 1016.4 |
| 20260510141630 | 73 | 5 | 4.3 | 7.8 | 0.00 | 0.00 | 0.00 | 20 | 1016.3 |
| 20260510140626 | 72 | 33 | 4.3 | 9.6 | 0.00 | 0.00 | 0.00 | 21 | 1016.2 |
| 20260510135644 | 71 | 355 | 4.3 | 8.7 | 0.00 | 0.00 | 0.00 | 21 | 1016.3 |
| 20260510134638 | 70 | 19 | 6.1 | 10.4 | 0.00 | 0.00 | 0.00 | 21 | 1016.2 |
| 20260510133626 | 69 | 349 | 5.2 | 9.6 | 0.00 | 0.00 | 0.00 | 22 | 1015.5 |
| 20260510132645 | 68 | 5 | 2.6 | 7.0 | 0.00 | 0.00 | 0.00 | 23 | 1015.3 |
| 20260510131632 | 67 | 360 | 3.5 | 5.2 | 0.00 | 0.00 | 0.00 | 24 | 1015.3 |
| 20260510130629 | 67 | 348 | 2.6 | 4.3 | 0.00 | 0.00 | 0.00 | 24 | 1015.1 |
| 20260510125628 | 68 | 348 | 2.6 | 3.5 | 0.00 | 0.00 | 0.00 | 23 | 1015.2 |
| 20260510124626 | 68 | 360 | 1.7 | 3.5 | 0.00 | 0.00 | 0.00 | 22 | 1015.2 |
| 20260510123640 | 69 | 319 | 0.9 | 4.3 | 0.00 | 0.00 | 0.00 | 21 | 1015.2 |
| 20260510122634 | 69 | 19 | 1.7 | 7.0 | 0.00 | 0.00 | 0.00 | 21 | 1014.9 |
| 20260510121625 | 70 | 34 | 3.5 | 7.8 | 0.00 | 0.00 | 0.00 | 20 | 1014.6 |
| 20260510120638 | 70 | 18 | 3.5 | 7.0 | 0.00 | 0.00 | 0.00 | 20 | 1014.5 |
| 20260510115631 | 70 | 44 | 3.5 | 7.0 | 0.00 | 0.00 | 0.00 | 20 | 1014.3 |
| 20260510114629 | 70 | 20 | 4.3 | 6.1 | 0.00 | 0.00 | 0.00 | 20 | 1014.4 |
| 20260510113642 | 70 | 38 | 3.5 | 7.0 | 0.00 | 0.00 | 0.00 | 20 | 1014.3 |
| 20260510112632 | 70 | 36 | 3.5 | 7.0 | 0.00 | 0.00 | 0.00 | 19 | 1014.2 |
| 20260510111643 | 71 | 26 | 4.3 | 7.8 | 0.00 | 0.00 | 0.00 | 19 | 1014.1 |
| 20260510110623 | 71 | 19 | 3.5 | 7.8 | 0.00 | 0.00 | 0.00 | 19 | 1014.2 |
| 20260510105638 | 71 | 36 | 3.5 | 6.1 | 0.00 | 0.00 | 0.00 | 19 | 1014.2 |
| 20260510104634 | 70 | 49 | 3.5 | 5.2 | 0.00 | 0.00 | 0.00 | 20 | 1014.1 |
| 20260510102628 | 67 | 36 | 0.0 | 2.6 | 0.00 | 0.00 | 0.00 | 23 | 1014.1 |
| 20260510101635 | 66 | 81 | 2.6 | 3.5 | 0.00 | 0.00 | 0.00 | 26 | 1014.1 |
| 20260510100637 | 67 | 83 | 2.6 | 4.3 | 0.00 | 0.00 | 0.00 | 25 | 1013.9 |
| 20260510095629 | 67 | 80 | 1.7 | 2.6 | 0.00 | 0.00 | 0.00 | 24 | 1013.9 |
| 20260510094626 | 67 | 77 | 1.7 | 2.6 | 0.00 | 0.00 | 0.00 | 24 | 1013.8 |
| 20260510093640 | 67 | 74 | 0.0 | 1.7 | 0.00 | 0.00 | 0.00 | 24 | 1013.7 |
| 20260510092634 | 68 | 76 | 0.9 | 2.6 | 0.00 | 0.00 | 0.00 | 22 | 1013.5 |
| 20260510091625 | 69 | 96 | 1.7 | 3.5 | 0.00 | 0.00 | 0.00 | 22 | 1013.4 |
| 20260510085640 | 73 | 124 | 1.7 | 4.3 | 0.00 | 0.00 | 0.00 | 18 | 1013.4 |
| 20260510084637 | 74 | 46 | 0.0 | 3.5 | 0.00 | 0.00 | 0.00 | 17 | 1013.2 |
| 20260510083625 | 74 | 58 | 0.0 | 2.6 | 0.00 | 0.00 | 0.00 | 16 | 1013.0 |
| 20260510081640 | 75 | 355 | 0.9 | 1.7 | 0.00 | 0.00 | 0.00 | 16 | 1012.9 |
| 20260510080636 | 75 | 355 | 1.7 | 3.5 | 0.00 | 0.00 | 0.00 | 15 | 1013.0 |
| 20260510075636 | 75 | 304 | 2.6 | 6.1 | 0.00 | 0.00 | 0.00 | 15 | 1012.9 |
| 20260510074621 | 75 | 168 | 0.9 | 4.3 | 0.00 | 0.00 | 0.00 | 15 | 1012.9 |
| 20260510073637 | 74 | 153 | 2.6 | 4.3 | 0.00 | 0.00 | 0.00 | 16 | 1012.8 |
| 20260510072634 | 73 | 206 | 2.6 | 3.5 | 0.00 | 0.00 | 0.00 | 17 | 1012.8 |
| 20260510071633 | 72 | 146 | 1.7 | 6.1 | 0.00 | 0.00 | 0.00 | 17 | 1012.8 |
| 20260510070629 | 73 | 67 | 0.9 | 3.5 | 0.00 | 0.00 | 0.00 | 17 | 1012.9 |
| 20260510065636 | 73 | 69 | 0.0 | 1.7 | 0.00 | 0.00 | 0.00 | 16 | 1012.9 |
| 20260510064638 | 73 | 64 | 5.2 | 6.1 | 0.00 | 0.00 | 0.00 | 16 | 1012.9 |
| 20260510063634 | 74 | 123 | 3.5 | 4.3 | 0.00 | 0.00 | 0.00 | 16 | 1012.8 |
| 20260510062641 | 74 | 131 | 1.7 | 3.5 | 0.00 | 0.00 | 0.00 | 16 | 1012.8 |
| 20260510061639 | 74 | 138 | 1.7 | 3.5 | 0.00 | 0.00 | 0.00 | 15 | 1012.8 |
| 20260510060633 | 74 | 138 | 1.7 | 4.3 | 0.00 | 0.00 | 0.00 | 15 | 1012.8 |
| 20260510055734 | 74 | 156 | 1.7 | 4.3 | 0.00 | 0.00 | 0.00 | 15 | 1012.7 |
| 20260510054744 | 74 | 147 | 1.7 | 3.5 | 0.00 | 0.00 | 0.00 | 15 | 1012.8 |
| 20260510053741 | 75 | 135 | 2.6 | 5.2 | 0.00 | 0.00 | 0.00 | 14 | 1012.8 |
| 20260510052737 | 75 | 180 | 4.3 | 7.0 | 0.00 | 0.00 | 0.00 | 14 | 1012.8 |
| 20260510051739 | 76 | 162 | 1.7 | 5.2 | 0.00 | 0.00 | 0.00 | 14 | 1012.9 |
| 20260510050736 | 77 | 152 | 1.7 | 3.5 | 0.00 | 0.00 | 0.00 | 13 | 1012.9 |
| 20260510045725 | 78 | 171 | 2.6 | 4.3 | 0.00 | 0.00 | 0.00 | 12 | 1013.0 |
| 20260510044740 | 79 | 217 | 1.7 | 2.6 | 0.00 | 0.00 | 0.00 | 12 | 1012.2 |
| 20260510043737 | 80 | 223 | 2.6 | 7.0 | 0.00 | 0.00 | 0.00 | 11 | 1012.0 |
| 20260510042733 | 80 | 277 | 5.2 | 8.7 | 0.00 | 0.00 | 0.00 | 11 | 1012.1 |
| 20260510040742 | 80 | 280 | 4.3 | 7.8 | 0.00 | 0.00 | 0.00 | 11 | 1012.0 |
| 20260510035738 | 81 | 255 | 4.3 | 7.8 | 0.00 | 0.00 | 0.00 | 11 | 1011.8 |
| 20260510034736 | 81 | 205 | 3.5 | 7.8 | 0.00 | 0.00 | 0.00 | 11 | 1011.7 |
| 20260510033724 | 82 | 228 | 2.6 | 8.7 | 0.00 | 0.00 | 0.00 | 11 | 1011.5 |
| 20260510032737 | 82 | 265 | 3.5 | 7.0 | 0.00 | 0.00 | 0.00 | 10 | 1011.5 |
| 20260510031730 | 83 | 205 | 4.3 | 8.7 | 0.00 | 0.00 | 0.00 | 10 | 1011.4 |
| 20260510025743 | 84 | 234 | 7.0 | 10.4 | 0.00 | 0.00 | 0.00 | 10 | 1011.2 |
| 20260510024731 | 84 | 272 | 4.3 | 9.6 | 0.00 | 0.00 | 0.00 | 10 | 1011.0 |
| 20260510023726 | 84 | 239 | 6.1 | 9.6 | 0.00 | 0.00 | 0.00 | 10 | 1010.9 |
| 20260510022738 | 85 | 233 | 6.1 | 8.7 | 0.00 | 0.00 | 0.00 | 10 | 1010.7 |
| 20260510021735 | 85 | 229 | 4.3 | 8.7 | 0.00 | 0.00 | 0.00 | 10 | 1010.6 |
| 20260510014724 | 87 | 243 | 5.2 | 9.6 | 0.00 | 0.00 | 0.00 | 9 | 1010.2 |
| 20260510013738 | 88 | 247 | 6.1 | 10.4 | 0.00 | 0.00 | 0.00 | 9 | 1010.1 |
| 20260510012729 | 88 | 234 | 7.0 | 9.6 | 0.00 | 0.00 | 0.00 | 9 | 1010.0 |
| 20260510011727 | 89 | 198 | 4.3 | 8.7 | 0.00 | 0.00 | 0.00 | 9 | 1009.9 |
| 20260510010740 | 90 | 232 | 3.5 | 9.6 | 0.00 | 0.00 | 0.00 | 8 | 1009.9 |
| 20260510005731 | 91 | 163 | 6.1 | 10.4 | 0.00 | 0.00 | 0.00 | 8 | 1009.9 |
| 20260510002726 | 92 | 207 | 6.1 | 11.3 | 0.00 | 0.00 | 0.00 | 8 | 1009.9 |
| 20260510001723 | 92 | 259 | 3.5 | 11.3 | 0.00 | 0.00 | 0.00 | 8 | 1009.9 |
| 20260510000719 | 92 | 200 | 6.1 | 10.4 | 0.00 | 0.00 | 0.00 | 8 | 1009.9 |
| 20260509235726 | 93 | 186 | 4.3 | 10.4 | 0.00 | 0.00 | 0.00 | 8 | 1010.0 |
| 20260509233724 | 93 | 256 | 3.5 | 8.7 | 0.00 | 0.00 | 0.00 | 7 | 1010.3 |
| 20260509232718 | 93 | 201 | 5.2 | 9.6 | 0.00 | 0.00 | 0.00 | 7 | 1010.5 |
| 20260509231736 | 94 | 238 | 3.5 | 7.8 | 0.00 | 0.00 | 0.00 | 7 | 1010.5 |
| 20260509230725 | 94 | 105 | 0.9 | 6.1 | 0.00 | 0.00 | 0.00 | 7 | 1010.6 |
| 20260509224718 | 93 | 193 | 0.9 | 7.8 | 0.00 | 0.00 | 0.00 | 7 | 1011.1 |
| 20260509223731 | 93 | 142 | 4.3 | 9.6 | 0.00 | 0.00 | 0.00 | 7 | 1011.1 |
| 20260509221726 | 93 | 244 | 3.5 | 7.0 | 0.00 | 0.00 | 0.00 | 7 | 1011.3 |
| 20260509220722 | 93 | 105 | 1.7 | 7.0 | 0.00 | 0.00 | 0.00 | 7 | 1011.5 |
| 20260509215720 | 93 | 125 | 7.0 | 9.6 | 0.00 | 0.00 | 0.00 | 7 | 1011.7 |
| 20260509214731 | 93 | 232 | 4.3 | 12.2 | 0.00 | 0.00 | 0.00 | 7 | 1012.0 |
| 20260509212723 | 94 | 190 | 8.7 | 14.8 | 0.00 | 0.00 | 0.00 | 7 | 1012.2 |
| 20260509210725 | 93 | 321 | 5.2 | 10.4 | 0.00 | 0.00 | 0.00 | 7 | 1012.6 |
| 20260509205732 | 92 | 273 | 1.7 | 7.0 | 0.00 | 0.00 | 0.00 | 7 | 1012.7 |
| 20260509204730 | 92 | 122 | 4.3 | 13.9 | 0.00 | 0.00 | 0.00 | 7 | 1012.9 |
| 20260509202717 | 92 | 209 | 7.8 | 13.9 | 0.00 | 0.00 | 0.00 | 7 | 1013.4 |
| 20260509201717 | 93 | 205 | 6.1 | 12.2 | 0.00 | 0.00 | 0.00 | 7 | 1013.5 |
| 20260509200728 | 93 | 164 | 7.0 | 13.0 | 0.00 | 0.00 | 0.00 | 8 | 1013.6 |
| 20260509193720 | 91 | 202 | 1.7 | 10.4 | 0.00 | 0.00 | 0.00 | 9 | 1014.0 |
| 20260509191724 | 90 | 239 | 6.1 | 8.7 | 0.00 | 0.00 | 0.00 | 10 | 1014.2 |
| 20260509185726 | 88 | 269 | 2.6 | 5.2 | 0.00 | 0.00 | 0.00 | 11 | 1014.4 |
| 20260509184720 | 88 | 264 | 3.5 | 7.8 | 0.00 | 0.00 | 0.00 | 11 | 1014.6 |
| 20260509183717 | 87 | 248 | 5.2 | 7.8 | 0.00 | 0.00 | 0.00 | 12 | 1014.7 |
| 20260509182726 | 87 | 305 | 3.5 | 7.0 | 0.00 | 0.00 | 0.00 | 12 | 1014.9 |
| 20260509181719 | 87 | 239 | 3.5 | 7.0 | 0.00 | 0.00 | 0.00 | 12 | 1015.1 |
| 20260509180713 | 87 | 251 | 3.5 | 7.0 | 0.00 | 0.00 | 0.00 | 13 | 1015.2 |
| 20260509175724 | 85 | 280 | 2.6 | 7.8 | 0.00 | 0.00 | 0.00 | 14 | 1015.3 |
| 20260509174717 | 85 | 265 | 1.7 | 7.8 | 0.00 | 0.00 | 0.00 | 14 | 1015.4 |